Time;durP1;ratioP1;P1;durP2;ratioP2;P2;SDS_P1;SDS_P2;PMS_P1;PMS_P2;Temp;Humidity;BMP_temperature;BMP_pressure;BME280_temperature;BME280_humidity;BME280_pressure;Samples;Min_cycle;Max_cycle;Signal;HPM_P1;HPM_P2
2024/03/15 00:00:56;;;;;;;1.20;1.20;;;;;;;6.06;78.54;96517.47;5095527;28;20247;-87
2024/03/15 00:03:23;;;;;;;0.80;0.80;;;;;;;5.84;78.36;96505.19;5095543;28;20199;-87
2024/03/15 00:05:50;;;;;;;1.40;1.13;;;;;;;5.87;77.63;96511.81;5095481;28;20290;-87
2024/03/15 00:08:17;;;;;;;0.80;0.80;;;;;;;5.57;77.10;96494.75;5079075;28;20248;-87
2024/03/15 00:10:46;;;;;;;1.17;1.10;;;;;;;5.72;77.94;96511.75;5094825;28;20200;-88
2024/03/15 00:13:13;;;;;;;1.60;1.50;;;;;;;5.83;78.13;96513.38;5095344;28;20282;-87
2024/03/15 00:15:41;;;;;;;1.13;1.03;;;;;;;5.61;78.58;96477.38;5078780;28;20321;-87
2024/03/15 00:18:08;;;;;;;1.20;1.20;;;;;;;5.71;79.00;96508.31;5095296;28;20713;-87
2024/03/15 00:20:36;;;;;;;1.70;1.60;;;;;;;5.75;79.11;96500.66;5095654;28;20199;-88
2024/03/15 00:23:06;;;;;;;7.53;6.67;;;;;;;5.89;78.55;96504.44;5094974;28;20199;-88
2024/03/15 00:25:34;;;;;;;2.60;2.40;;;;;;;5.97;78.56;96501.34;5095558;28;20286;-87
2024/03/15 00:28:02;;;;;;;1.33;1.23;;;;;;;6.03;78.37;96499.50;5095255;28;20684;-88
2024/03/15 00:30:28;;;;;;;1.00;1.00;;;;;;;5.75;79.78;96490.91;5104994;28;20687;-87
2024/03/15 00:32:57;;;;;;;1.90;1.80;;;;;;;5.86;78.72;96500.47;5115983;28;20194;-88
2024/03/15 00:35:24;;;;;;;0.97;0.97;;;;;;;5.85;78.66;96498.88;5115462;28;20206;-88
2024/03/15 00:37:52;;;;;;;0.90;0.90;;;;;;;5.61;78.78;96480.03;5110133;28;20257;-88
2024/03/15 00:40:19;;;;;;;1.00;1.00;;;;;;;5.50;79.65;96467.81;5094897;28;20199;-87
2024/03/15 00:42:46;;;;;;;1.50;1.40;;;;;;;5.62;79.84;96471.03;5104085;28;20593;-87
2024/03/15 00:45:13;;;;;;;1.10;1.10;;;;;;;5.92;78.77;96495.19;5102008;28;20195;-88
2024/03/15 00:47:40;;;;;;;0.90;0.90;;;;;;;5.77;78.99;96477.41;5110104;28;20194;-87
2024/03/15 00:50:08;;;;;;;0.90;0.90;;;;;;;5.95;78.40;96486.78;5114982;28;20202;-87
2024/03/15 00:52:37;;;;;;;0.70;0.70;;;;;;;5.58;79.64;96463.91;5115609;28;20736;-87
2024/03/15 00:55:05;;;;;;;1.57;0.73;;;;;;;5.80;79.62;96487.47;5113987;28;20202;-87
2024/03/15 00:57:32;;;;;;;0.90;0.90;;;;;;;5.73;79.40;96485.09;5115355;28;20264;-87
2024/03/15 00:59:59;;;;;;;1.10;1.00;;;;;;;5.62;79.79;96471.03;5115103;28;20279;-87
2024/03/15 01:02:28;;;;;;;0.87;0.87;;;;;;;5.38;80.83;96459.28;5111246;28;20255;-87
2024/03/15 01:04:55;;;;;;;0.60;0.60;;;;;;;5.58;81.13;96479.72;5096816;28;20199;-87
2024/03/15 01:07:23;;;;;;;1.13;1.13;;;;;;;5.53;81.33;96477.84;5082342;28;20262;-87
2024/03/15 01:09:50;;;;;;;0.83;0.83;;;;;;;5.52;81.69;96486.03;5098484;28;20196;-87
2024/03/15 01:12:17;;;;;;;2.07;1.10;;;;;;;5.58;81.07;96477.09;5097807;28;20323;-87
2024/03/15 01:14:45;;;;;;;1.33;1.23;;;;;;;5.47;81.72;96478.88;5081955;28;20217;-87
2024/03/15 01:17:12;;;;;;;2.47;2.17;;;;;;;5.44;81.94;96476.75;5111537;27;20225;-88
2024/03/15 01:19:39;;;;;;;1.20;1.10;;;;;;;5.46;82.37;96468.56;5119330;27;20322;-88
2024/03/15 01:22:07;;;;;;;1.30;1.20;;;;;;;5.56;81.77;96479.19;5118668;27;20216;-88
2024/03/15 01:24:34;;;;;;;1.20;1.10;;;;;;;5.60;81.80;96481.06;5119199;27;20203;-88
2024/03/15 01:27:01;;;;;;;1.00;1.00;;;;;;;5.30;82.15;96444.72;5093458;28;20658;-88
2024/03/15 01:29:29;;;;;;;1.30;1.20;;;;;;;5.52;82.35;96484.19;5098179;28;20203;-88
2024/03/15 01:31:56;;;;;;;0.80;0.80;;;;;;;5.58;82.28;96477.88;5098294;28;20248;-88
2024/03/15 01:34:23;;;;;;;1.00;0.90;;;;;;;5.70;81.75;96479.53;5098378;28;20221;-88
2024/03/15 01:36:50;;;;;;;1.17;1.13;;;;;;;5.53;81.99;96479.69;5097900;28;20630;-88
2024/03/15 01:39:18;;;;;;;1.23;1.13;;;;;;;5.63;81.96;96485.81;5097292;28;20571;-88
2024/03/15 01:41:45;;;;;;;1.10;1.10;;;;;;;5.75;81.50;96482.19;5097831;27;20649;-88
2024/03/15 01:44:13;;;;;;;1.10;1.10;;;;;;;5.75;80.74;96464.50;5112777;28;20547;-88
2024/03/15 01:46:40;;;;;;;1.10;1.10;;;;;;;5.79;78.62;96484.03;5098378;28;20206;-88
2024/03/15 01:49:08;;;;;;;1.17;1.07;;;;;;;5.57;78.41;96483.41;5098348;28;20195;-88
2024/03/15 01:51:35;;;;;;;1.03;1.03;;;;;;;5.57;78.58;96460.44;5097988;28;20196;-88
2024/03/15 01:54:02;;;;;;;1.07;0.97;;;;;;;5.71;78.99;96481.91;5098000;28;20286;-88
2024/03/15 01:56:29;;;;;;;1.10;1.10;;;;;;;5.61;79.05;96472.09;5115998;27;20700;-88
2024/03/15 01:58:56;;;;;;;1.10;1.10;;;;;;;5.55;78.94;96478.41;5116901;27;20615;-88
2024/03/15 02:01:23;;;;;;;1.53;1.40;;;;;;;5.54;79.65;96470.75;5101006;27;20226;-88
2024/03/15 02:03:49;;;;;;;1.10;1.10;;;;;;;5.75;78.76;96485.63;5118096;27;20206;-88
2024/03/15 02:06:16;;;;;;;1.23;1.13;;;;;;;5.71;79.00;96479.25;5117017;27;20263;-88
2024/03/15 02:08:43;;;;;;;1.17;1.10;;;;;;;5.69;78.19;96475.28;5117106;27;20195;-88
2024/03/15 02:11:11;;;;;;;1.07;1.07;;;;;;;5.47;78.78;96459.63;5118577;27;20644;-88
2024/03/15 02:13:39;;;;;;;0.87;0.87;;;;;;;5.73;79.01;96486.91;5101075;27;20194;-87
2024/03/15 02:16:07;;;;;;;1.10;1.10;;;;;;;5.79;78.16;96477.97;5117736;27;20225;-86
2024/03/15 02:18:35;;;;;;;0.90;0.90;;;;;;;5.76;78.43;96483.75;5117596;27;20209;-87
2024/03/15 02:21:02;;;;;;;0.90;0.90;;;;;;;5.60;78.19;96491.59;5118029;27;20289;-87
2024/03/15 02:23:29;;;;;;;1.33;1.23;;;;;;;5.61;78.24;96485.31;5117780;27;20199;-87
2024/03/15 02:25:56;;;;;;;1.40;1.30;;;;;;;5.62;78.10;96460.47;5096633;27;20198;-87
2024/03/15 02:28:23;;;;;;;1.77;1.57;;;;;;;5.76;78.16;96479.28;5090353;27;20315;-88
2024/03/15 02:30:50;;;;;;;1.30;1.20;;;;;;;5.74;77.34;96478.75;5117743;27;20243;-88
2024/03/15 02:33:17;;;;;;;1.17;1.17;;;;;;;5.57;77.36;96478.13;5100718;27;20199;-87
2024/03/15 02:35:44;;;;;;;1.33;1.23;;;;;;;5.59;77.59;96468.91;5118124;27;20199;-91
2024/03/15 02:38:12;;;;;;;1.50;1.40;;;;;;;5.75;77.90;96490.09;5100959;27;20771;-91
2024/03/15 02:40:38;;;;;;;1.20;1.10;;;;;;;5.36;77.76;96419.16;5115336;27;20255;-91
2024/03/15 02:43:06;;;;;;;0.80;0.80;;;;;;;5.71;78.78;96492.47;5081161;28;20290;-90
2024/03/15 02:45:33;;;;;;;0.90;0.90;;;;;;;5.73;79.87;96492.19;5081021;28;20195;-89
2024/03/15 02:48:01;;;;;;;1.00;1.00;;;;;;;5.78;78.49;96489.59;5096733;28;20203;-89
2024/03/15 02:50:28;;;;;;;0.80;0.80;;;;;;;5.79;78.42;96476.13;5080521;28;20206;-87
2024/03/15 02:52:55;;;;;;;0.80;0.80;;;;;;;5.78;78.40;96481.69;5097018;28;20200;-88
2024/03/15 02:55:22;;;;;;;0.90;0.90;;;;;;;5.69;78.46;96467.34;5096553;28;20214;-88
2024/03/15 02:57:50;;;;;;;0.73;0.73;;;;;;;5.73;79.04;96471.88;5092089;27;20250;-89
2024/03/15 03:00:17;;;;;;;0.80;0.80;;;;;;;5.57;79.10;96447.22;5117356;27;20233;-88
2024/03/15 03:02:44;;;;;;;0.90;0.90;;;;;;;5.77;79.42;96472.13;5103439;28;20288;-92
2024/03/15 03:05:12;;;;;;;0.70;0.70;;;;;;;5.49;78.42;96458.28;5097268;28;20271;-92
2024/03/15 03:07:39;;;;;;;0.67;0.67;;;;;;;5.47;78.70;96443.78;5097417;27;20218;-92
2024/03/15 03:10:07;;;;;;;1.20;1.13;;;;;;;5.81;77.34;96494.38;5117024;27;20251;-93
2024/03/15 03:12:33;;;;;;;0.90;0.90;;;;;;;5.73;78.35;96490.38;5116997;27;20251;-91
2024/03/15 03:15:00;;;;;;;0.80;0.80;;;;;;;5.70;78.16;96474.25;5099895;27;20203;-91
2024/03/15 03:17:27;;;;;;;0.80;0.80;;;;;;;5.73;78.58;96494.84;5108791;28;20226;-93
2024/03/15 03:19:54;;;;;;;0.70;0.70;;;;;;;5.59;78.62;96486.59;5060161;28;20200;-92
2024/03/15 03:22:21;;;;;;;0.87;0.87;;;;;;;5.47;78.66;96465.69;5076681;28;20196;-92
2024/03/15 03:24:48;;;;;;;0.60;0.60;;;;;;;5.38;78.45;96451.34;5076329;28;20207;-91
2024/03/15 03:27:15;;;;;;;0.90;0.90;;;;;;;5.71;78.65;96497.75;5076111;28;20229;-91
2024/03/15 03:29:42;;;;;;;0.70;0.70;;;;;;;5.21;79.24;96432.28;5074840;28;20205;-91
2024/03/15 03:32:09;;;;;;;0.70;0.70;;;;;;;5.72;78.55;96495.91;5076420;28;20204;-92
2024/03/15 03:34:37;;;;;;;0.80;0.80;;;;;;;5.94;77.51;96493.13;5112593;27;20202;-93
2024/03/15 03:37:04;;;;;;;0.90;0.90;;;;;;;5.68;77.34;96485.06;5100557;27;20314;-90
2024/03/15 03:39:31;;;;;;;0.83;0.83;;;;;;;5.57;78.34;96504.53;5116440;27;20194;-88
2024/03/15 03:41:58;;;;;;;0.80;0.80;;;;;;;5.40;78.30;96480.94;5116047;27;20230;-92
2024/03/15 03:44:26;;;;;;;0.80;0.80;;;;;;;5.78;77.72;96490.38;5116981;27;20194;-91
2024/03/15 03:46:53;;;;;;;1.20;0.83;;;;;;;5.80;77.70;96501.47;5100085;27;20199;-91
2024/03/15 03:49:20;;;;;;;0.97;0.90;;;;;;;5.48;77.60;96480.47;5116317;27;20198;-91
2024/03/15 03:51:47;;;;;;;0.90;0.90;;;;;;;5.27;78.31;96449.75;5116682;27;20657;-91
2024/03/15 03:54:15;;;;;;;0.80;0.80;;;;;;;5.32;78.60;96449.75;5099520;27;20190;-91
2024/03/15 03:56:42;;;;;;;0.73;0.70;;;;;;;5.29;78.49;96440.50;5105784;28;20302;-91
2024/03/15 03:59:09;;;;;;;0.93;0.93;;;;;;;5.60;78.98;96496.88;5095926;28;20290;-90
2024/03/15 04:01:36;;;;;;;1.87;1.70;;;;;;;5.59;79.82;96497.16;5096715;28;20200;-91
2024/03/15 04:04:04;;;;;;;3.43;2.20;;;;;;;5.75;80.35;96505.94;5095773;28;20264;-91
2024/03/15 04:06:30;;;;;;;2.90;2.60;;;;;;;5.66;80.30;96495.09;5096438;28;20730;-91
2024/03/15 04:08:58;;;;;;;2.70;2.33;;;;;;;5.53;81.14;96488.41;5095891;28;20206;-92
2024/03/15 04:11:25;;;;;;;2.63;2.43;;;;;;;5.14;81.55;96438.56;5095956;28;20196;-93
2024/03/15 04:13:52;;;;;;;2.50;2.27;;;;;;;5.10;81.75;96442.75;5095525;28;20674;-92
2024/03/15 04:16:19;;;;;;;2.03;1.93;;;;;;;5.37;82.21;96476.16;5079611;28;20286;-92
2024/03/15 04:18:47;;;;;;;2.83;1.70;;;;;;;5.42;81.67;96493.88;5095966;28;20280;-93
2024/03/15 04:21:16;;;;;;;1.63;1.53;;;;;;;5.54;82.08;96502.41;5076909;28;20201;-86
2024/03/15 04:23:43;;;;;;;1.80;1.70;;;;;;;5.60;82.11;96502.16;5115444;28;20293;-88
2024/03/15 04:26:10;;;;;;;1.80;1.70;;;;;;;5.68;81.65;96503.53;5115820;28;20194;-87
2024/03/15 04:28:38;;;;;;;2.23;2.03;;;;;;;5.53;81.26;96506.88;5114039;28;20297;-88
2024/03/15 04:31:05;;;;;;;6.47;4.10;;;;;;;5.45;81.92;96504.72;5115283;28;20274;-89
2024/03/15 04:33:35;;;;;;;4.83;3.23;;;;;;;5.38;81.83;96485.66;5098998;28;20251;-92
2024/03/15 04:36:04;;;;;;;1.70;1.60;;;;;;;5.65;80.69;96509.31;5115935;28;20237;-89
2024/03/15 04:38:32;;;;;;;8.03;6.03;;;;;;;5.57;79.85;96509.81;5115371;28;20227;-89
2024/03/15 04:41:09;;;;;;;18.53;12.30;;;;;;;5.46;79.97;96508.97;5113081;28;20278;-88
2024/03/15 04:43:36;;;;;;;33.27;19.50;;;;;;;5.59;78.89;96511.16;5085439;28;20293;-88
2024/03/15 04:46:03;;;;;;;21.13;12.43;;;;;;;5.60;79.03;96515.38;5100090;28;20248;-89
2024/03/15 04:48:30;;;;;;;59.30;35.87;;;;;;;5.17;79.07;96463.66;5099552;28;20206;-90
2024/03/15 04:50:57;;;;;;;20.83;14.53;;;;;;;5.38;78.74;96496.22;5099532;28;20690;-90
2024/03/15 04:53:25;;;;;;;30.07;23.27;;;;;;;4.86;78.75;96418.59;5099026;28;20203;-90
2024/03/15 04:55:52;;;;;;;18.80;14.53;;;;;;;5.57;78.56;96518.50;5099608;28;20195;-90
2024/03/15 04:58:21;;;;;;;17.13;12.83;;;;;;;5.47;77.93;96505.28;5082646;28;20278;-90
2024/03/15 05:00:48;;;;;;;32.70;25.03;;;;;;;5.39;77.38;96498.63;5099130;28;20227;-90
2024/03/15 05:03:15;;;;;;;28.33;21.33;;;;;;;5.34;77.07;96468.75;5082721;28;20222;-90
2024/03/15 05:05:42;;;;;;;50.33;39.93;;;;;;;5.19;76.80;96444.91;5099181;28;20268;-90
2024/03/15 05:08:10;;;;;;;49.70;34.93;;;;;;;5.67;77.55;96522.28;5099519;28;20204;-90
2024/03/15 05:10:38;;;;;;;31.20;24.27;;;;;;;5.63;77.34;96532.56;5082913;28;20199;-89
2024/03/15 05:13:06;;;;;;;16.93;11.97;;;;;;;5.44;77.78;96497.88;5099631;27;20202;-90
2024/03/15 05:15:33;;;;;;;21.80;15.10;;;;;;;5.37;77.72;96497.28;5119521;27;20195;-89
2024/03/15 05:18:00;;;;;;;16.53;12.07;;;;;;;5.52;77.43;96538.81;5102142;27;20257;-88
2024/03/15 05:20:27;;;;;;;15.17;10.83;;;;;;;5.22;78.06;96492.69;5118903;27;20252;-92
2024/03/15 05:22:54;;;;;;;34.63;20.83;;;;;;;5.50;77.99;96530.34;5102746;27;20198;-90
2024/03/15 05:25:21;;;;;;;48.70;25.17;;;;;;;5.31;78.22;96517.59;5118660;27;20247;-88
2024/03/15 05:27:49;;;;;;;23.00;15.10;;;;;;;5.22;79.00;96499.81;5119415;27;20198;-87
2024/03/15 05:30:18;;;;;;;30.63;21.27;;;;;;;5.43;78.85;96541.16;5118278;27;20205;-84
2024/03/15 05:32:45;;;;;;;17.30;13.80;;;;;;;5.50;78.60;96544.38;5118228;27;20230;-84
2024/03/15 05:35:17;;;;;;;11.20;8.70;;;;;;;5.56;78.79;96548.63;5117485;27;20205;-84
2024/03/15 05:37:45;;;;;;;14.97;12.13;;;;;;;5.61;79.14;96547.84;5118525;27;20219;-84
2024/03/15 05:40:12;;;;;;;22.67;14.23;;;;;;;5.67;78.33;96551.31;5118106;27;20231;-84
2024/03/15 05:42:39;;;;;;;19.03;13.20;;;;;;;5.74;78.83;96554.53;5117703;27;20198;-85
2024/03/15 05:45:06;;;;;;;7.20;6.30;;;;;;;5.66;78.21;96547.91;5115586;27;20199;-85
2024/03/15 05:47:33;;;;;;;7.23;6.47;;;;;;;5.26;78.28;96491.13;5116287;27;20668;-85
2024/03/15 05:50:02;;;;;;;7.83;6.50;;;;;;;5.30;78.35;96500.13;5109526;28;20554;-85
2024/03/15 05:52:30;;;;;;;3.60;3.30;;;;;;;5.48;78.44;96527.19;5088415;27;20194;-85
2024/03/15 05:54:56;;;;;;;4.47;4.03;;;;;;;5.38;78.94;96501.50;5109357;28;20265;-85
2024/03/15 05:57:26;;;;;;;4.57;4.17;;;;;;;5.84;79.03;96575.72;5113048;27;20215;-85
2024/03/15 05:59:53;;;;;;;5.87;3.73;;;;;;;5.78;79.18;96547.69;5096625;28;20218;-85
2024/03/15 06:02:20;;;;;;;7.50;6.80;;;;;;;5.89;78.47;96562.56;5098039;27;20210;-85
2024/03/15 06:04:47;;;;;;;8.80;7.90;;;;;;;5.58;79.66;96512.22;5116082;27;20218;-84
2024/03/15 06:07:13;;;;;;;4.63;4.27;;;;;;;5.94;79.50;96570.53;5107383;27;20194;-85
2024/03/15 06:09:43;;;;;;;2.80;2.60;;;;;;;5.47;79.57;96505.28;5116595;27;20636;-84
2024/03/15 06:12:10;;;;;;;2.00;1.90;;;;;;;5.56;78.46;96509.00;5116947;27;20199;-84
2024/03/15 06:14:37;;;;;;;1.57;1.47;;;;;;;5.43;76.59;96520.03;5116605;27;20717;-84
2024/03/15 06:17:05;;;;;;;1.43;1.33;;;;;;;5.45;77.59;96514.50;5116605;27;20259;-84
2024/03/15 06:19:33;;;;;;;1.43;1.33;;;;;;;5.63;77.31;96536.00;5116665;27;20202;-85
2024/03/15 06:22:00;;;;;;;1.80;1.40;;;;;;;5.68;77.27;96516.72;5116446;27;20245;-84
2024/03/15 06:24:27;;;;;;;1.30;1.30;;;;;;;6.04;76.55;96572.41;5116134;27;20222;-83
2024/03/15 06:26:54;;;;;;;1.60;1.50;;;;;;;5.99;77.11;96569.75;5115226;27;20201;-83
2024/03/15 06:29:31;;;;;;;1.80;1.70;;;;;;;6.00;76.50;96574.78;5116210;27;20226;-83
2024/03/15 06:31:59;;;;;;;1.60;1.50;;;;;;;5.99;76.69;96570.53;5116696;27;20230;-84
2024/03/15 06:34:31;;;;;;;1.70;1.60;;;;;;;5.83;76.81;96524.75;5083147;27;20191;-85
2024/03/15 06:36:59;;;;;;;3.13;2.93;;;;;;;6.15;77.11;96575.91;5111497;27;20201;-85
2024/03/15 06:39:50;;;;;;;3.53;3.23;;;;;;;6.11;77.68;96579.03;5113742;27;20301;-85
2024/03/15 06:42:24;;;;;;;1.40;1.30;;;;;;;6.12;74.52;96554.25;5113812;27;20198;-84
2024/03/15 06:45:02;;;;;;;1.03;1.03;;;;;;;6.21;74.20;96564.31;5106861;27;20204;-84
2024/03/15 06:47:31;;;;;;;1.60;1.50;;;;;;;6.40;75.42;96583.94;5110493;27;20269;-85
2024/03/15 06:50:20;;;;;;;1.83;1.73;;;;;;;6.13;75.59;96582.25;5105987;27;20195;-85
2024/03/15 06:52:46;;;;;;;1.57;1.47;;;;;;;6.14;76.57;96575.09;5103889;27;20278;-85
2024/03/15 06:55:15;;;;;;;1.40;1.30;;;;;;;6.37;76.57;96597.66;5110756;27;20200;-85
2024/03/15 06:57:43;;;;;;;1.50;1.40;;;;;;;6.38;75.53;96584.19;5103147;27;20223;-85
2024/03/15 07:00:11;;;;;;;1.40;1.30;;;;;;;5.94;74.90;96509.75;5109018;28;20571;-86
2024/03/15 07:02:41;;;;;;;1.13;1.03;;;;;;;6.75;74.54;96593.84;5110276;27;20193;-84
2024/03/15 07:05:08;;;;;;;1.80;1.70;;;;;;;6.36;73.55;96546.66;5111096;27;20226;-84
2024/03/15 07:07:36;;;;;;;1.53;1.43;;;;;;;6.71;75.17;96590.13;5092133;28;20196;-85
2024/03/15 07:10:04;;;;;;;1.50;1.40;;;;;;;6.48;74.59;96570.22;5099351;28;20231;-85
2024/03/15 07:12:31;;;;;;;2.17;1.97;;;;;;;6.51;74.50;96550.41;5106603;27;20280;-85
2024/03/15 07:14:58;;;;;;;1.37;1.27;;;;;;;6.59;73.92;96540.09;5102822;28;20192;-85
2024/03/15 07:17:24;;;;;;;1.77;1.67;;;;;;;6.79;74.50;96589.59;5095378;28;20195;-85
2024/03/15 07:19:51;;;;;;;2.23;1.83;;;;;;;6.55;74.58;96541.69;5094613;28;20199;-84
2024/03/15 07:22:19;;;;;;;2.27;2.07;;;;;;;6.81;73.96;96549.66;5095184;28;20196;-85
2024/03/15 07:24:46;;;;;;;5.13;3.70;;;;;;;6.89;73.53;96582.72;5094690;28;20198;-85
2024/03/15 07:27:13;;;;;;;3.53;3.13;;;;;;;6.72;73.75;96583.75;5108003;28;20249;-85
2024/03/15 07:29:42;;;;;;;2.30;2.10;;;;;;;7.01;73.85;96596.53;5105904;27;20206;-85
2024/03/15 07:32:10;;;;;;;3.37;2.70;;;;;;;6.49;73.66;96515.50;5097944;27;20245;-85
2024/03/15 07:34:38;;;;;;;2.33;2.00;;;;;;;7.09;72.72;96590.72;5106482;28;20196;-84
2024/03/15 07:37:05;;;;;;;2.90;2.70;;;;;;;7.08;73.81;96603.13;5094699;28;20209;-86
2024/03/15 07:39:32;;;;;;;2.50;2.30;;;;;;;7.37;73.13;96588.63;5102489;27;20214;-85
2024/03/15 07:41:59;;;;;;;2.57;2.37;;;;;;;7.56;72.19;96577.22;5101253;28;20195;-84
2024/03/15 07:44:27;;;;;;;3.07;2.47;;;;;;;7.73;72.49;96584.06;5108719;27;20194;-84
2024/03/15 07:46:56;;;;;;;2.13;2.00;;;;;;;8.09;71.31;96576.81;5113827;27;20209;-85
2024/03/15 07:49:23;;;;;;;5.87;3.13;;;;;;;7.78;71.31;96568.16;5111081;28;20191;-85
2024/03/15 07:51:50;;;;;;;2.30;2.10;;;;;;;7.85;71.78;96589.88;5093752;28;20203;-84
2024/03/15 07:54:18;;;;;;;3.20;2.17;;;;;;;8.10;70.47;96559.88;5111073;27;20198;-85
2024/03/15 07:56:44;;;;;;;2.33;2.13;;;;;;;8.34;70.97;96568.00;5114205;27;20190;-84
2024/03/15 07:59:13;;;;;;;2.00;1.80;;;;;;;8.45;69.34;96551.00;5112646;27;20222;-84
2024/03/15 08:01:41;;;;;;;2.00;1.90;;;;;;;8.57;69.38;96569.25;5114110;27;20729;-84
2024/03/15 08:04:09;;;;;;;1.50;1.40;;;;;;;7.99;67.99;96537.13;5109250;28;20200;-84
2024/03/15 08:06:37;;;;;;;1.97;1.80;;;;;;;8.04;69.14;96523.84;5105202;28;20278;-84
2024/03/15 08:09:04;;;;;;;1.70;1.60;;;;;;;8.46;69.91;96563.19;5101800;28;20199;-85
2024/03/15 08:11:33;;;;;;;1.70;1.60;;;;;;;8.43;68.02;96534.56;5108475;27;20206;-84
2024/03/15 08:14:02;;;;;;;1.53;1.43;;;;;;;8.84;68.06;96583.97;5107384;27;20229;-84
2024/03/15 08:16:34;;;;;;;1.80;1.70;;;;;;;8.65;66.48;96528.09;5110604;28;20722;-84
2024/03/15 08:19:04;;;;;;;1.77;1.67;;;;;;;8.69;66.66;96575.03;5114534;27;20678;-84
2024/03/15 08:21:30;;;;;;;1.63;1.53;;;;;;;8.62;65.45;96552.50;5107626;28;20199;-84
2024/03/15 08:24:01;;;;;;;1.77;1.67;;;;;;;8.50;67.65;96563.44;5106986;28;20202;-84
2024/03/15 08:26:28;;;;;;;1.90;1.80;;;;;;;8.70;66.19;96581.13;5081157;28;20642;-84
2024/03/15 08:28:56;;;;;;;84.30;40.20;;;;;;;8.64;66.88;96559.16;5093200;28;20203;-84
2024/03/15 08:31:22;;;;;;;11.53;7.00;;;;;;;9.07;65.78;96562.84;5106377;28;20678;-84
2024/03/15 08:33:49;;;;;;;199.47;88.67;;;;;;;9.09;66.66;96543.97;5107738;28;20710;-84
2024/03/15 08:36:16;;;;;;;15.63;11.30;;;;;;;9.34;64.66;96574.09;5105902;28;20238;-85
2024/03/15 08:38:48;;;;;;;15.27;11.70;;;;;;;9.35;64.71;96570.34;5106805;28;20634;-84
2024/03/15 08:41:15;;;;;;;2.37;2.27;;;;;;;9.18;63.31;96587.47;5089425;28;20283;-84
2024/03/15 08:43:42;;;;;;;4.07;3.67;;;;;;;9.46;64.02;96569.97;5104819;28;20195;-84
2024/03/15 08:46:10;;;;;;;2.43;2.23;;;;;;;9.40;65.28;96562.31;5110674;28;20194;-84
2024/03/15 08:48:37;;;;;;;4.20;2.10;;;;;;;9.14;64.68;96564.38;5113599;28;20236;-84
2024/03/15 08:51:04;;;;;;;2.93;2.73;;;;;;;9.69;66.31;96567.66;5092953;28;20195;-83
2024/03/15 08:53:32;;;;;;;4.40;4.00;;;;;;;9.93;65.83;96530.47;5093077;28;20243;-85
2024/03/15 08:55:58;;;;;;;4.00;3.60;;;;;;;9.52;66.01;96528.22;5093756;28;20677;-84
2024/03/15 08:58:26;;;;;;;2.50;2.30;;;;;;;9.60;66.38;96550.72;5093648;28;20230;-85
2024/03/15 09:00:55;;;;;;;3.90;3.60;;;;;;;9.69;66.77;96549.06;5112622;28;20217;-84
2024/03/15 09:03:22;;;;;;;4.33;3.93;;;;;;;9.40;66.09;96501.22;5110601;28;20190;-84
2024/03/15 09:05:49;;;;;;;3.20;2.77;;;;;;;9.97;66.07;96552.75;5111366;28;20202;-84
2024/03/15 09:08:15;;;;;;;3.40;3.10;;;;;;;9.65;66.07;96498.34;5113423;28;20199;-84
2024/03/15 09:10:42;;;;;;;2.13;2.03;;;;;;;9.60;67.30;96556.03;5112175;28;20206;-85
2024/03/15 09:13:10;;;;;;;3.03;2.83;;;;;;;9.34;67.40;96489.88;5098918;28;20568;-84
2024/03/15 09:15:38;;;;;;;2.90;2.70;;;;;;;9.70;66.48;96550.63;5109672;28;20281;-84
2024/03/15 09:18:06;;;;;;;4.23;3.83;;;;;;;9.54;66.59;96507.47;5096500;28;20207;-84
2024/03/15 09:20:35;;;;;;;4.17;3.77;;;;;;;9.52;66.30;96536.19;5099637;28;20187;-84
2024/03/15 09:23:02;;;;;;;5.63;3.93;;;;;;;9.54;67.56;96542.03;5096692;28;20206;-84
2024/03/15 09:25:30;;;;;;;4.90;4.30;;;;;;;9.01;68.78;96494.13;5101145;27;20194;-85
2024/03/15 09:27:57;;;;;;;4.97;3.43;;;;;;;10.68;63.91;96546.59;5104303;28;20191;-84
2024/03/15 09:30:29;;;;;;;4.77;4.37;;;;;;;10.96;60.76;96493.50;5102880;27;20622;-84
2024/03/15 09:32:56;;;;;;;7.53;6.67;;;;;;;11.91;57.50;96513.44;5117287;27;20195;-84
2024/03/15 09:35:25;;;;;;;5.07;3.40;;;;;;;12.43;57.99;96538.03;5090594;28;20270;-84
2024/03/15 09:37:51;;;;;;;2.80;2.60;;;;;;;11.31;61.53;96513.44;5113344;27;20207;-84
2024/03/15 09:40:18;;;;;;;5.90;4.53;;;;;;;10.50;63.11;96540.19;5101135;28;20276;-85
2024/03/15 09:42:47;;;;;;;5.43;4.83;;;;;;;10.11;65.20;96543.03;5115805;27;20226;-84
2024/03/15 09:45:16;;;;;;;4.07;3.77;;;;;;;9.99;65.41;96543.44;5090291;28;20295;-84
2024/03/15 09:47:43;;;;;;;5.17;4.67;;;;;;;9.99;66.91;96540.78;5110386;27;20664;-85
2024/03/15 09:50:11;;;;;;;4.37;3.97;;;;;;;10.07;65.35;96518.09;5116430;27;20198;-84
2024/03/15 09:52:39;;;;;;;6.50;5.23;;;;;;;10.04;66.76;96548.69;5108132;27;20211;-84
2024/03/15 09:55:10;;;;;;;5.10;4.53;;;;;;;10.38;65.97;96541.69;5115709;27;20717;-84
2024/03/15 09:57:37;;;;;;;5.83;5.33;;;;;;;10.65;65.33;96536.53;5110662;27;20199;-84
2024/03/15 10:00:06;;;;;;;4.43;3.30;;;;;;;11.13;60.93;96514.25;5107679;27;20331;-84
2024/03/15 10:02:33;;;;;;;4.10;3.80;;;;;;;11.71;59.71;96493.25;5104519;27;20210;-84
2024/03/15 10:05:00;;;;;;;7.10;6.33;;;;;;;12.49;58.10;96483.44;5109644;27;20246;-84
2024/03/15 10:07:28;;;;;;;5.60;5.10;;;;;;;13.16;56.20;96509.44;5101885;28;20199;-83
2024/03/15 10:09:55;;;;;;;4.73;4.33;;;;;;;11.32;58.88;96496.34;5101511;27;20195;-84
2024/03/15 10:12:22;;;;;;;7.20;6.10;;;;;;;10.71;61.98;96530.03;5109110;27;20265;-84
2024/03/15 10:14:49;;;;;;;8.47;6.67;;;;;;;10.03;65.29;96496.59;5116991;27;20199;-83
2024/03/15 10:17:16;;;;;;;6.23;5.73;;;;;;;10.05;65.08;96496.28;5116613;27;20286;-84
2024/03/15 10:19:43;;;;;;;6.03;5.53;;;;;;;9.95;64.97;96481.25;5116733;27;20227;-83
2024/03/15 10:22:09;;;;;;;5.50;5.00;;;;;;;9.84;64.68;96474.47;5117536;27;20622;-84
2024/03/15 10:24:38;;;;;;;6.57;5.60;;;;;;;9.72;64.94;96488.16;5115134;27;20208;-84
2024/03/15 10:27:06;;;;;;;7.20;6.70;;;;;;;10.08;64.86;96513.56;5099486;28;20196;-84
2024/03/15 10:29:33;;;;;;;19.30;13.87;;;;;;;9.89;64.01;96477.06;5091660;28;20195;-84
2024/03/15 10:32:00;;;;;;;6.10;5.60;;;;;;;10.21;62.88;96488.91;5107301;27;20218;-84
2024/03/15 10:34:30;;;;;;;4.57;3.60;;;;;;;10.86;59.67;96448.38;5095530;28;20203;-84
2024/03/15 10:36:57;;;;;;;5.10;4.53;;;;;;;10.70;61.64;96466.44;5111362;27;20737;-84
2024/03/15 10:39:24;;;;;;;4.30;3.90;;;;;;;10.63;63.41;96506.72;5104655;28;20273;-83
2024/03/15 10:41:52;;;;;;;3.70;3.40;;;;;;;10.50;62.53;96492.28;5096426;28;20202;-84
2024/03/15 10:44:19;;;;;;;3.30;3.10;;;;;;;11.81;58.06;96496.81;5093213;28;20214;-85
2024/03/15 10:46:46;;;;;;;3.37;3.17;;;;;;;11.22;59.39;96489.31;5096076;28;20200;-85
2024/03/15 10:49:13;;;;;;;4.07;3.77;;;;;;;10.76;61.84;96495.38;5084724;28;20199;-85
2024/03/15 10:51:41;;;;;;;4.27;3.17;;;;;;;10.99;61.99;96499.00;5114854;27;20202;-84
2024/03/15 10:54:08;;;;;;;3.80;3.43;;;;;;;10.81;63.18;96505.16;5115894;27;20576;-84
2024/03/15 10:56:35;;;;;;;3.50;3.30;;;;;;;11.57;59.20;96494.31;5091445;28;20203;-84
2024/03/15 10:59:02;;;;;;;4.30;4.00;;;;;;;11.84;58.97;96486.38;5095099;28;20283;-84
2024/03/15 11:01:31;;;;;;;3.83;3.53;;;;;;;12.92;55.65;96482.22;5095638;28;20223;-84
2024/03/15 11:03:58;;;;;;;3.80;3.30;;;;;;;12.93;54.55;96444.53;5101999;28;20207;-89
2024/03/15 11:06:39;;;;;;;3.50;3.30;;;;;;;13.03;53.67;96437.34;5101019;27;20194;-84
2024/03/15 11:09:30;;;;;;;3.47;3.17;;;;;;;13.25;54.81;96482.78;5114388;27;20206;-85
2024/03/15 11:12:02;;;;;;;30.93;18.33;;;;;;;13.30;55.82;96477.31;5119532;27;20273;-85
2024/03/15 11:14:41;;;;;;;12.43;10.23;;;;;;;12.42;56.59;96415.53;5112031;27;20190;-85
2024/03/15 11:17:08;;;;;;;6.07;5.47;;;;;;;13.19;56.35;96470.59;5096188;28;20199;-85
2024/03/15 11:19:42;;;;;;;4.03;3.63;;;;;;;12.38;57.52;96481.28;5106921;27;21415;-83
2024/03/15 11:22:19;;;;;;;4.77;4.47;;;;;;;11.87;58.86;96439.66;5114672;27;20214;-84
2024/03/15 11:24:47;;;;;;;3.90;3.60;;;;;;;11.07;60.77;96422.97;5114138;27;20205;-86
2024/03/15 11:27:15;;;;;;;6.50;4.03;;;;;;;10.63;62.91;96497.97;5095454;28;20199;-85
2024/03/15 11:29:42;;;;;;;4.20;3.90;;;;;;;10.16;63.37;96425.16;5102366;27;20714;-85
2024/03/15 11:32:11;;;;;;;5.57;3.57;;;;;;;10.25;63.00;96466.00;5116039;27;20272;-85
2024/03/15 11:34:39;;;;;;;4.67;4.27;;;;;;;10.12;64.66;96445.41;5115780;27;20224;-86
2024/03/15 11:37:08;;;;;;;4.03;3.63;;;;;;;10.21;64.22;96452.47;5115669;27;20566;-86
2024/03/15 11:39:35;;;;;;;32.57;16.60;;;;;;;10.00;65.28;96446.63;5105081;28;20327;-85
2024/03/15 11:42:03;;;;;;;17.17;9.73;;;;;;;9.92;65.08;96426.00;5106688;27;20661;-85